createdAt,value
2019-05-13T00:00:20.660Z,1016.00
2019-05-13T00:01:20.639Z,1015.96
2019-05-13T00:02:20.636Z,1016.01
2019-05-13T00:03:20.618Z,1016.09
2019-05-13T00:04:20.615Z,1016.02
2019-05-13T00:05:20.614Z,1016.07
2019-05-13T00:06:20.592Z,1016.13
2019-05-13T00:07:20.574Z,1016.18
2019-05-13T00:08:21.923Z,1016.15
2019-05-13T00:09:20.556Z,1016.22
2019-05-13T00:10:20.554Z,1016.26
2019-05-13T00:11:20.550Z,1016.30
2019-05-13T00:12:20.561Z,1016.29
2019-05-13T00:13:20.519Z,1016.26
2019-05-13T00:14:20.499Z,1016.27
2019-05-13T00:15:20.494Z,1016.26
2019-05-13T00:16:20.493Z,1016.18
2019-05-13T00:17:20.480Z,1016.16
2019-05-13T00:18:20.482Z,1016.22
2019-05-13T00:19:20.464Z,1016.22
2019-05-13T00:20:20.435Z,1016.21
2019-05-13T00:21:23.127Z,1016.27
2019-05-13T00:22:20.414Z,1016.20
2019-05-13T00:23:20.406Z,1016.20
2019-05-13T00:24:33.677Z,1016.25
2019-05-13T00:25:20.385Z,1016.33
2019-05-13T00:26:20.374Z,1016.31
2019-05-13T00:27:20.364Z,1016.29
2019-05-13T00:28:20.370Z,1016.29
2019-05-13T00:29:20.339Z,1016.29
2019-05-13T00:30:20.329Z,1016.30
2019-05-13T00:31:20.319Z,1016.30
2019-05-13T00:32:20.314Z,1016.28
2019-05-13T00:33:20.296Z,1016.33
2019-05-13T00:34:20.331Z,1016.33
2019-05-13T00:35:20.281Z,1016.34
2019-05-13T00:36:20.267Z,1016.34
2019-05-13T00:37:20.254Z,1016.35
2019-05-13T00:38:20.246Z,1016.25
2019-05-13T00:39:20.241Z,1016.31
2019-05-13T00:40:20.265Z,1016.29
2019-05-13T00:41:20.210Z,1016.25
2019-05-13T00:42:20.205Z,1016.27
2019-05-13T00:43:20.198Z,1016.34
2019-05-13T00:44:20.185Z,1016.35
2019-05-13T00:45:20.176Z,1016.30
2019-05-13T00:46:20.194Z,1016.44
2019-05-13T00:47:20.148Z,1016.34
2019-05-13T00:48:20.149Z,1016.42
2019-05-13T00:49:20.125Z,1016.37
2019-05-13T00:50:20.122Z,1016.45
2019-05-13T00:51:20.105Z,1016.37
2019-05-13T00:52:20.112Z,1016.41
2019-05-13T00:53:20.085Z,1016.42
2019-05-13T00:54:20.074Z,1016.40
2019-05-13T00:55:30.823Z,1016.34
2019-05-13T00:56:20.094Z,1016.40
2019-05-13T00:57:20.051Z,1016.52
2019-05-13T00:58:20.035Z,1016.47
2019-05-13T00:59:20.023Z,1016.48
2019-05-13T01:00:20.012Z,1016.48
2019-05-13T01:01:20.002Z,1016.47
2019-05-13T01:02:20.000Z,1016.48
2019-05-13T01:03:19.984Z,1016.48
2019-05-13T01:04:19.976Z,1016.46
2019-05-13T01:05:19.966Z,1016.47
2019-05-13T01:06:19.947Z,1016.56
2019-05-13T01:07:26.032Z,1016.47
2019-05-13T01:08:20.925Z,1016.44
2019-05-13T01:09:19.915Z,1016.51
2019-05-13T01:10:19.909Z,1016.47
2019-05-13T01:11:19.898Z,1016.52
2019-05-13T01:12:19.886Z,1016.51
2019-05-13T01:13:19.884Z,1016.53
2019-05-13T01:14:19.863Z,1016.57
2019-05-13T01:15:19.851Z,1016.53
2019-05-13T01:16:19.847Z,1016.52
2019-05-13T01:17:19.830Z,1016.53
2019-05-13T01:18:19.863Z,1016.50
2019-05-13T01:19:19.816Z,1016.56
2019-05-13T01:20:19.799Z,1016.56
2019-05-13T01:21:19.791Z,1016.57
2019-05-13T01:22:19.777Z,1016.56
2019-05-13T01:23:19.770Z,1016.60
2019-05-13T01:24:19.765Z,1016.64
2019-05-13T01:25:19.743Z,1016.61
2019-05-13T01:26:30.041Z,1016.58
2019-05-13T01:27:20.620Z,1016.60
2019-05-13T01:28:19.714Z,1016.54
2019-05-13T01:29:19.713Z,1016.62
2019-05-13T01:30:19.734Z,1016.52
2019-05-13T01:31:19.685Z,1016.56
2019-05-13T01:32:19.674Z,1016.62
2019-05-13T01:33:19.658Z,1016.56
2019-05-13T01:34:19.651Z,1016.61
2019-05-13T01:35:19.647Z,1016.58
2019-05-13T01:36:19.643Z,1016.54
2019-05-13T01:37:19.617Z,1016.59
2019-05-13T01:38:19.609Z,1016.57
2019-05-13T01:39:19.597Z,1016.62
2019-05-13T01:40:19.599Z,1016.67
2019-05-13T01:41:19.578Z,1016.65
2019-05-13T01:42:19.572Z,1016.69
2019-05-13T01:43:19.555Z,1016.68
2019-05-13T01:44:19.542Z,1016.67
2019-05-13T01:45:19.541Z,1016.73
2019-05-13T01:46:19.527Z,1016.75
2019-05-13T01:47:19.519Z,1016.70
2019-05-13T01:48:19.503Z,1016.72
2019-05-13T01:49:19.493Z,1016.74
2019-05-13T01:50:19.567Z,1016.76
2019-05-13T01:51:19.470Z,1016.79
2019-05-13T01:52:19.455Z,1016.82
2019-05-13T01:53:19.454Z,1016.84
2019-05-13T01:54:19.436Z,1016.86
2019-05-13T01:55:19.423Z,1016.86
2019-05-13T01:56:19.451Z,1016.88
2019-05-13T01:57:29.252Z,1016.86
2019-05-13T01:58:19.391Z,1016.91
2019-05-13T01:59:19.382Z,1016.93
2019-05-13T02:00:19.377Z,1016.90
2019-05-13T02:01:19.360Z,1016.91
2019-05-13T02:02:19.388Z,1016.92
2019-05-13T02:03:19.337Z,1016.92
2019-05-13T02:04:19.349Z,1017.00
2019-05-13T02:05:26.313Z,1016.93
2019-05-13T02:06:19.307Z,1016.91
2019-05-13T02:07:19.304Z,1016.94
2019-05-13T02:08:19.313Z,1016.96
2019-05-13T02:09:19.276Z,1017.00
2019-05-13T02:10:19.268Z,1016.99
2019-05-13T02:11:19.254Z,1016.97
2019-05-13T02:12:19.242Z,1017.04
2019-05-13T02:13:19.233Z,1017.07
2019-05-13T02:14:19.228Z,1017.08
2019-05-13T02:15:19.210Z,1017.05
2019-05-13T02:16:19.199Z,1017.06
2019-05-13T02:17:19.224Z,1017.05
2019-05-13T02:18:19.178Z,1016.99
2019-05-13T02:19:19.171Z,1017.07
2019-05-13T02:20:19.165Z,1017.06
2019-05-13T02:21:19.153Z,1017.03
2019-05-13T02:22:19.139Z,1017.07
2019-05-13T02:23:19.162Z,1017.06
2019-05-13T02:24:19.121Z,1016.99
2019-05-13T02:25:19.111Z,1017.04
2019-05-13T02:26:19.108Z,1017.10
2019-05-13T02:27:19.088Z,1017.06
2019-05-13T02:28:19.073Z,1017.05
2019-05-13T02:29:19.084Z,1017.10
2019-05-13T02:30:19.051Z,1017.08
2019-05-13T02:31:31.989Z,1017.13
2019-05-13T02:32:23.275Z,1017.03
2019-05-13T02:33:19.022Z,1017.16
2019-05-13T02:34:19.018Z,1017.13
2019-05-13T02:35:18.997Z,1017.15
2019-05-13T02:36:32.643Z,1017.12
2019-05-13T02:37:18.977Z,1017.14
2019-05-13T02:38:24.553Z,1017.12
2019-05-13T02:39:22.282Z,1017.14
2019-05-13T02:40:22.384Z,1017.19
2019-05-13T02:41:22.550Z,1017.18
2019-05-13T02:42:22.602Z,1017.16
2019-05-13T02:43:22.713Z,1017.10
2019-05-13T02:44:18.906Z,1017.22
2019-05-13T02:45:18.945Z,1017.18
2019-05-13T02:46:18.881Z,1017.26
2019-05-13T02:47:18.881Z,1017.24
2019-05-13T02:48:18.861Z,1017.18
2019-05-13T02:49:18.849Z,1017.21
2019-05-13T02:50:18.838Z,1017.22
2019-05-13T02:51:18.865Z,1017.18
2019-05-13T02:52:18.818Z,1017.21
2019-05-13T02:53:18.811Z,1017.26
2019-05-13T02:54:18.798Z,1017.27
2019-05-13T02:55:18.792Z,1017.25
2019-05-13T02:56:18.858Z,1017.27
2019-05-13T02:57:18.771Z,1017.27
2019-05-13T02:58:18.758Z,1017.29
2019-05-13T02:59:18.753Z,1017.25
2019-05-13T03:00:18.737Z,1017.28
2019-05-13T03:01:18.717Z,1017.20
2019-05-13T03:02:18.754Z,1017.27
2019-05-13T03:03:18.703Z,1017.30
2019-05-13T03:04:18.699Z,1017.31
2019-05-13T03:05:18.679Z,1017.28
2019-05-13T03:06:18.667Z,1017.31
2019-05-13T03:07:33.094Z,1017.38
2019-05-13T03:08:34.175Z,1017.31
2019-05-13T03:09:22.715Z,1017.35
2019-05-13T03:10:18.623Z,1017.33
2019-05-13T03:11:18.614Z,1017.38
2019-05-13T03:12:18.628Z,1017.34
2019-05-13T03:13:18.591Z,1017.30
2019-05-13T03:14:18.584Z,1017.29
2019-05-13T03:15:18.581Z,1017.30
2019-05-13T03:16:18.569Z,1017.35
2019-05-13T03:17:18.554Z,1017.28
2019-05-13T03:18:18.568Z,1017.30
2019-05-13T03:19:18.532Z,1017.33
2019-05-13T03:20:18.519Z,1017.34
2019-05-13T03:21:18.510Z,1017.33
2019-05-13T03:22:18.501Z,1017.31
2019-05-13T03:23:18.495Z,1017.34
2019-05-13T03:24:18.484Z,1017.36
2019-05-13T03:25:18.465Z,1017.35
2019-05-13T03:26:18.453Z,1017.31
2019-05-13T03:27:20.460Z,1017.37
2019-05-13T03:28:22.285Z,1017.34
2019-05-13T03:29:18.430Z,1017.33
2019-05-13T03:30:18.418Z,1017.34
2019-05-13T03:31:18.411Z,1017.33
2019-05-13T03:32:18.390Z,1017.35
2019-05-13T03:33:20.105Z,1017.42
2019-05-13T03:34:25.495Z,1017.34
2019-05-13T03:35:25.798Z,1017.42
2019-05-13T03:36:25.148Z,1017.40
2019-05-13T03:37:25.361Z,1017.41
2019-05-13T03:39:33.219Z,1017.46
2019-05-13T03:40:32.971Z,1017.48
2019-05-13T03:41:32.974Z,1017.49
2019-05-13T03:42:33.458Z,1017.49
2019-05-13T03:43:32.603Z,1017.47
2019-05-13T03:44:32.692Z,1017.45
2019-05-13T03:45:32.818Z,1017.46
2019-05-13T03:46:42.313Z,1017.49
2019-05-13T03:47:32.854Z,1017.46
2019-05-13T03:48:33.368Z,1017.49
2019-05-13T03:49:32.818Z,1017.51
2019-05-13T03:50:34.695Z,1017.51
2019-05-13T03:51:32.734Z,1017.51
2019-05-13T03:52:33.627Z,1017.57
2019-05-13T03:53:32.680Z,1017.56
2019-05-13T03:54:32.727Z,1017.57
2019-05-13T03:55:32.879Z,1017.57
2019-05-13T03:56:32.815Z,1017.62
2019-05-13T03:57:33.720Z,1017.60
2019-05-13T03:58:32.528Z,1017.53
2019-05-13T03:59:33.273Z,1017.65
2019-05-13T04:00:32.381Z,1017.61
2019-05-13T04:01:32.698Z,1017.57
2019-05-13T04:02:32.642Z,1017.58
2019-05-13T04:03:33.203Z,1017.60
2019-05-13T04:04:32.627Z,1017.62
2019-05-13T04:05:33.467Z,1017.62
2019-05-13T04:06:32.525Z,1017.62
2019-05-13T04:07:32.703Z,1017.72
2019-05-13T04:08:32.695Z,1017.69
2019-05-13T04:09:36.148Z,1017.69
2019-05-13T04:10:33.566Z,1017.64
2019-05-13T04:11:33.034Z,1017.64
2019-05-13T04:12:33.313Z,1017.64
2019-05-13T04:13:33.524Z,1017.66
2019-05-13T04:14:33.379Z,1017.65
2019-05-13T04:15:32.029Z,1017.70
2019-05-13T04:16:32.361Z,1017.66
2019-05-13T04:17:42.843Z,1017.64
2019-05-13T04:18:32.070Z,1017.68
2019-05-13T04:19:33.598Z,1017.68
2019-05-13T04:20:33.218Z,1017.71
2019-05-13T04:21:33.830Z,1017.77
2019-05-13T04:22:33.321Z,1017.75
2019-05-13T04:23:32.450Z,1017.75
2019-05-13T04:24:33.367Z,1017.75
2019-05-13T04:25:32.356Z,1017.74
2019-05-13T04:26:32.421Z,1017.75
2019-05-13T04:27:32.684Z,1017.78
2019-05-13T04:28:33.011Z,1017.75
2019-05-13T04:29:32.926Z,1017.72
2019-05-13T04:30:33.016Z,1017.67
2019-05-13T04:31:33.362Z,1017.65
2019-05-13T04:32:33.454Z,1017.66
2019-05-13T04:33:33.379Z,1017.65
2019-05-13T04:34:33.647Z,1017.60
2019-05-13T04:35:33.283Z,1017.59
2019-05-13T04:36:32.081Z,1017.57
2019-05-13T04:37:32.863Z,1017.55
2019-05-13T04:38:33.130Z,1017.56
2019-05-13T04:39:41.734Z,1017.58
2019-05-13T04:40:33.338Z,1017.51
2019-05-13T04:41:33.175Z,1017.57
2019-05-13T04:42:33.321Z,1017.49
2019-05-13T04:43:34.572Z,1017.48
2019-05-13T04:44:32.313Z,1017.46
2019-05-13T04:45:33.074Z,1017.58
2019-05-13T04:46:32.780Z,1017.59
2019-05-13T04:47:33.167Z,1017.64
2019-05-13T04:48:44.221Z,1017.67
2019-05-13T04:49:32.514Z,1017.60
2019-05-13T04:50:32.921Z,1017.62
2019-05-13T04:51:32.860Z,1017.62
2019-05-13T04:52:32.981Z,1017.70
2019-05-13T04:53:33.406Z,1017.68
2019-05-13T04:54:33.083Z,1017.79
2019-05-13T04:55:33.282Z,1017.71
2019-05-13T04:56:32.937Z,1017.76
2019-05-13T04:57:33.172Z,1017.80
2019-05-13T04:58:32.190Z,1017.81
2019-05-13T04:59:34.074Z,1017.79
2019-05-13T05:00:32.417Z,1017.83
2019-05-13T05:01:32.469Z,1017.79
2019-05-13T05:02:39.975Z,1017.81
2019-05-13T05:03:35.183Z,1017.85
2019-05-13T05:04:34.832Z,1017.80
2019-05-13T05:05:32.596Z,1017.87
2019-05-13T05:06:33.158Z,1017.85
2019-05-13T05:07:32.662Z,1017.83
2019-05-13T05:08:32.861Z,1017.81
2019-05-13T05:09:32.948Z,1017.88
2019-05-13T05:10:38.450Z,1017.86
2019-05-13T05:11:32.408Z,1017.83
2019-05-13T05:12:32.018Z,1017.83
2019-05-13T05:13:32.338Z,1017.93
2019-05-13T05:14:32.494Z,1017.86
2019-05-13T05:15:32.411Z,1017.87
2019-05-13T05:16:32.559Z,1017.94
2019-05-13T05:17:32.813Z,1017.95
2019-05-13T05:18:32.604Z,1018.01
2019-05-13T05:19:44.983Z,1018.03
2019-05-13T05:20:32.253Z,1017.96
2019-05-13T05:22:55.210Z,1018.04
2019-05-13T05:23:55.198Z,1018.04
2019-05-13T05:24:55.185Z,1018.06
2019-05-13T05:25:55.212Z,1018.05
2019-05-13T05:26:55.160Z,1018.03
2019-05-13T05:28:02.646Z,1018.08
2019-05-13T05:28:55.138Z,1018.14
2019-05-13T05:29:55.131Z,1018.10
2019-05-13T05:30:55.117Z,1018.09
2019-05-13T05:31:55.118Z,1018.09
2019-05-13T05:32:55.101Z,1018.08
2019-05-13T05:33:55.090Z,1018.02
2019-05-13T05:34:55.076Z,1018.12
2019-05-13T05:35:55.085Z,1018.04
2019-05-13T05:36:55.091Z,1018.06
2019-05-13T05:37:55.049Z,1018.01
2019-05-13T05:38:55.029Z,1018.00
2019-05-13T05:39:55.023Z,1018.03
2019-05-13T05:40:55.007Z,1018.07
2019-05-13T05:41:54.999Z,1018.08
2019-05-13T05:42:55.033Z,1018.10
2019-05-13T05:43:54.982Z,1018.08
2019-05-13T05:44:54.964Z,1018.10
2019-05-13T05:45:54.961Z,1018.15
2019-05-13T05:46:54.950Z,1018.15
2019-05-13T05:47:54.938Z,1018.16
2019-05-13T05:48:54.930Z,1018.12
2019-05-13T05:49:54.917Z,1018.17
2019-05-13T05:50:54.907Z,1018.13
2019-05-13T05:51:54.891Z,1018.17
2019-05-13T05:52:54.878Z,1018.12
2019-05-13T05:53:54.891Z,1018.09
2019-05-13T05:54:54.870Z,1018.16
2019-05-13T05:55:55.059Z,1018.11
2019-05-13T05:56:54.835Z,1018.17
2019-05-13T05:57:54.828Z,1018.10
2019-05-13T05:59:07.113Z,1018.07
2019-05-13T05:59:54.810Z,1018.09
2019-05-13T06:00:54.833Z,1018.10
2019-05-13T06:01:54.785Z,1018.09
2019-05-13T06:02:54.772Z,1018.12
2019-05-13T06:03:54.765Z,1018.08
2019-05-13T06:04:54.756Z,1018.08
2019-05-13T06:05:54.746Z,1018.02
2019-05-13T06:06:54.735Z,1018.10
2019-05-13T06:07:54.718Z,1018.16
2019-05-13T06:08:54.711Z,1018.14
2019-05-13T06:09:54.711Z,1018.19
2019-05-13T06:10:54.684Z,1018.13
2019-05-13T06:11:54.676Z,1018.11
2019-05-13T06:12:54.663Z,1018.06
2019-05-13T06:13:54.840Z,1018.03
2019-05-13T06:14:54.648Z,1018.04
2019-05-13T06:15:54.647Z,1018.01
2019-05-13T06:16:54.618Z,1018.03
2019-05-13T06:17:54.614Z,1018.02
2019-05-13T06:18:54.599Z,1018.07
2019-05-13T06:19:54.594Z,1018.07
2019-05-13T06:20:54.576Z,1018.07
2019-05-13T06:21:54.608Z,1018.13
2019-05-13T06:22:54.558Z,1018.16
2019-05-13T06:23:54.541Z,1018.16
2019-05-13T06:24:54.537Z,1018.10
2019-05-13T06:25:54.525Z,1018.14
2019-05-13T06:26:54.513Z,1018.10
2019-05-13T06:27:54.512Z,1018.05
2019-05-13T06:28:54.490Z,1018.03
2019-05-13T06:30:06.156Z,1018.03
2019-05-13T06:30:54.465Z,1018.03
2019-05-13T06:31:54.496Z,1018.06
2019-05-13T06:32:54.444Z,1018.01
2019-05-13T06:33:54.441Z,1018.03
2019-05-13T06:34:54.430Z,1017.99
2019-05-13T06:35:54.420Z,1017.97
2019-05-13T06:36:54.400Z,1018.06
2019-05-13T06:37:54.412Z,1018.00
2019-05-13T06:38:54.381Z,1017.98
2019-05-13T06:39:54.371Z,1018.03
2019-05-13T06:41:03.279Z,1018.04
2019-05-13T06:41:55.346Z,1018.04
2019-05-13T06:42:54.358Z,1018.03
2019-05-13T06:43:54.329Z,1018.12
2019-05-13T06:44:54.318Z,1018.06
2019-05-13T06:45:54.309Z,1018.05
2019-05-13T06:46:54.292Z,1018.04
2019-05-13T06:47:54.289Z,1018.03
2019-05-13T06:48:54.289Z,1017.99
2019-05-13T06:49:54.261Z,1018.06
2019-05-13T06:50:54.257Z,1018.05
2019-05-13T06:51:54.277Z,1018.07
2019-05-13T06:52:54.285Z,1018.06
2019-05-13T06:53:54.223Z,1018.13
2019-05-13T06:54:54.229Z,1018.15
2019-05-13T06:55:54.197Z,1018.18
2019-05-13T06:56:54.192Z,1018.25
2019-05-13T06:57:54.173Z,1018.17
2019-05-13T06:58:54.166Z,1018.17
2019-05-13T06:59:54.164Z,1018.14
2019-05-13T07:01:04.641Z,1018.11
2019-05-13T07:01:54.135Z,1018.13
2019-05-13T07:02:54.123Z,1018.11
2019-05-13T07:03:54.115Z,1018.11
2019-05-13T07:04:54.098Z,1018.12
2019-05-13T07:05:54.105Z,1018.11
2019-05-13T07:07:08.769Z,1018.08
2019-05-13T07:07:55.065Z,1018.03
2019-05-13T07:08:54.060Z,1018.03
2019-05-13T07:09:54.056Z,1018.05
2019-05-13T07:10:54.075Z,1018.09
2019-05-13T07:11:56.882Z,1018.07
2019-05-13T07:12:54.020Z,1018.06
2019-05-13T07:13:54.001Z,1018.02
2019-05-13T07:14:53.998Z,1018.05
2019-05-13T07:15:54.515Z,1018.04
2019-05-13T07:16:53.982Z,1018.06
2019-05-13T07:17:53.970Z,1018.05
2019-05-13T07:18:53.952Z,1018.00
2019-05-13T07:19:53.943Z,1018.08
2019-05-13T07:20:53.931Z,1018.09
2019-05-13T07:21:53.970Z,1018.10
2019-05-13T07:22:53.906Z,1018.10
2019-05-13T07:23:54.919Z,1018.12
2019-05-13T07:24:53.883Z,1018.14
2019-05-13T07:25:53.876Z,1018.15
2019-05-13T07:26:53.863Z,1018.15
2019-05-13T07:27:53.899Z,1018.10
2019-05-13T07:28:53.845Z,1018.08
2019-05-13T07:29:55.748Z,1018.13
2019-05-13T07:30:53.827Z,1018.13
2019-05-13T07:32:04.338Z,1018.14
2019-05-13T07:32:53.799Z,1018.13
2019-05-13T07:33:53.810Z,1018.15
2019-05-13T07:34:53.783Z,1018.17
2019-05-13T07:35:58.018Z,1018.16
2019-05-13T07:36:53.756Z,1018.16
2019-05-13T07:37:53.749Z,1018.03
2019-05-13T07:38:53.781Z,1018.10
2019-05-13T07:39:53.730Z,1018.03
2019-05-13T07:40:53.721Z,1018.04
2019-05-13T07:41:53.707Z,1018.09
2019-05-13T07:42:53.690Z,1018.12
2019-05-13T07:43:53.682Z,1018.08
2019-05-13T07:44:53.688Z,1018.18
2019-05-13T07:45:53.669Z,1018.12
2019-05-13T07:46:53.652Z,1018.14
2019-05-13T07:47:53.642Z,1018.18
2019-05-13T07:48:53.640Z,1018.16
2019-05-13T07:49:53.620Z,1018.13
2019-05-13T07:51:00.321Z,1018.12
2019-05-13T07:51:54.638Z,1018.16
2019-05-13T07:52:53.591Z,1018.11
2019-05-13T07:53:53.622Z,1018.10
2019-05-13T07:54:53.573Z,1018.09
2019-05-13T07:55:53.551Z,1018.09
2019-05-13T07:56:53.550Z,1018.09
2019-05-13T07:57:53.537Z,1018.08
2019-05-13T07:58:53.526Z,1018.04
2019-05-13T07:59:53.529Z,1018.04
2019-05-13T08:00:53.549Z,1018.04
2019-05-13T08:01:53.529Z,1017.96
2019-05-13T08:03:03.278Z,1017.91
2019-05-13T08:03:53.467Z,1017.93
2019-05-13T08:04:53.478Z,1017.90
2019-05-13T08:05:53.462Z,1017.99
2019-05-13T08:06:53.441Z,1017.99
2019-05-13T08:07:53.423Z,1018.03
2019-05-13T08:08:53.420Z,1018.05
2019-05-13T08:09:56.807Z,1018.06
2019-05-13T08:10:54.398Z,1018.13
2019-05-13T08:12:05.513Z,1018.12
2019-05-13T08:12:54.376Z,1018.16
2019-05-13T08:13:53.361Z,1018.17
2019-05-13T08:14:53.364Z,1018.18
2019-05-13T08:15:54.728Z,1018.23
2019-05-13T08:16:53.329Z,1018.17
2019-05-13T08:17:53.318Z,1018.22
2019-05-13T08:18:53.306Z,1018.22
2019-05-13T08:19:53.298Z,1018.20
2019-05-13T08:20:53.342Z,1018.15
2019-05-13T08:21:53.282Z,1018.22
2019-05-13T08:22:53.265Z,1018.18
2019-05-13T08:23:53.257Z,1018.12
2019-05-13T08:24:54.444Z,1018.16
2019-05-13T08:25:53.239Z,1018.16
2019-05-13T08:26:53.445Z,1018.11
2019-05-13T08:27:53.248Z,1018.12
2019-05-13T08:29:01.244Z,1018.09
2019-05-13T08:29:54.196Z,1018.06
2019-05-13T08:30:53.182Z,1018.10
2019-05-13T08:31:53.175Z,1018.04
2019-05-13T08:32:53.170Z,1018.00
2019-05-13T08:34:03.072Z,1017.98
2019-05-13T08:35:02.003Z,1018.06
2019-05-13T08:35:58.713Z,1017.93
2019-05-13T08:36:53.127Z,1017.98
2019-05-13T08:37:53.115Z,1017.99
2019-05-13T08:38:53.098Z,1017.94
2019-05-13T08:39:53.087Z,1017.92
2019-05-13T08:40:53.077Z,1017.91
2019-05-13T08:41:53.066Z,1017.98
2019-05-13T08:42:53.092Z,1017.93
2019-05-13T08:43:53.046Z,1017.95
2019-05-13T08:44:53.027Z,1017.95
2019-05-13T08:45:55.653Z,1017.96
2019-05-13T08:46:53.015Z,1018.00
2019-05-13T08:47:52.996Z,1018.03
2019-05-13T08:48:53.031Z,1017.99
2019-05-13T08:49:52.979Z,1018.01
2019-05-13T08:50:52.969Z,1018.04
2019-05-13T08:51:52.955Z,1017.97
2019-05-13T08:52:52.941Z,1018.01
2019-05-13T08:53:52.930Z,1017.99
2019-05-13T08:54:52.935Z,1017.97
2019-05-13T08:55:52.911Z,1017.99
2019-05-13T08:56:52.899Z,1017.85
2019-05-13T08:57:55.153Z,1017.85
2019-05-13T08:58:52.883Z,1017.86
2019-05-13T08:59:52.882Z,1017.82
2019-05-13T09:00:53.329Z,1017.93
2019-05-13T09:01:52.846Z,1017.88
2019-05-13T09:02:52.848Z,1017.94
2019-05-13T09:03:52.826Z,1017.88
2019-05-13T09:05:02.957Z,1017.89
2019-05-13T09:05:52.841Z,1017.86
2019-05-13T09:06:52.796Z,1017.89
2019-05-13T09:07:52.785Z,1017.94
2019-05-13T09:08:54.146Z,1017.97
2019-05-13T09:09:52.772Z,1017.92
2019-05-13T09:10:56.448Z,1018.00
2019-05-13T09:11:52.747Z,1017.98
2019-05-13T09:12:52.730Z,1018.00
2019-05-13T09:13:52.728Z,1018.03
2019-05-13T09:14:52.711Z,1018.02
2019-05-13T09:15:52.700Z,1018.04
2019-05-13T09:16:52.783Z,1018.05
2019-05-13T09:17:52.679Z,1018.07
2019-05-13T09:18:57.104Z,1018.02
2019-05-13T09:19:52.654Z,1018.10
2019-05-13T09:20:52.646Z,1018.05
2019-05-13T09:21:52.751Z,1018.02
2019-05-13T09:22:52.631Z,1018.08
2019-05-13T09:23:52.614Z,1018.13
2019-05-13T09:24:53.146Z,1018.06
2019-05-13T09:25:52.587Z,1018.14
2019-05-13T09:26:52.888Z,1018.14
2019-05-13T09:27:52.575Z,1018.16
2019-05-13T09:28:52.562Z,1018.15
2019-05-13T09:29:52.561Z,1018.13
2019-05-13T09:30:53.316Z,1018.19
2019-05-13T09:31:52.536Z,1018.15
2019-05-13T09:32:52.519Z,1018.11
2019-05-13T09:33:52.501Z,1018.16
2019-05-13T09:34:52.730Z,1018.08
2019-05-13T09:36:04.104Z,1018.12
2019-05-13T09:36:52.468Z,1018.04
2019-05-13T09:37:52.463Z,1018.08
2019-05-13T09:38:52.740Z,1018.08
2019-05-13T09:39:52.451Z,1018.10
2019-05-13T09:40:53.158Z,1018.09
2019-05-13T09:41:52.446Z,1018.08
2019-05-13T09:42:55.260Z,1018.08
2019-05-13T09:43:52.392Z,1018.07
2019-05-13T09:44:52.724Z,1018.05
2019-05-13T09:45:52.681Z,1018.03
2019-05-13T09:46:52.405Z,1018.04
2019-05-13T09:47:52.636Z,1018.06
2019-05-13T09:48:52.348Z,1018.05
2019-05-13T09:49:54.566Z,1018.00
2019-05-13T09:50:52.321Z,1018.00
2019-05-13T09:51:52.436Z,1017.97
2019-05-13T09:52:52.306Z,1017.97
2019-05-13T09:53:52.291Z,1018.05
2019-05-13T09:54:52.547Z,1018.02
2019-05-13T09:55:59.251Z,1018.03
2019-05-13T09:56:52.254Z,1018.01
2019-05-13T09:57:52.624Z,1017.98
2019-05-13T09:58:52.239Z,1018.03
2019-05-13T09:59:52.543Z,1018.05
2019-05-13T10:00:53.036Z,1018.00
2019-05-13T10:01:52.201Z,1018.05
2019-05-13T10:02:52.217Z,1017.99
2019-05-13T10:03:57.697Z,1018.07
2019-05-13T10:04:53.165Z,1018.06
2019-05-13T10:05:52.155Z,1018.05
2019-05-13T10:06:52.144Z,1017.97
2019-05-13T10:07:52.138Z,1018.06
2019-05-13T10:08:52.798Z,1017.98
2019-05-13T10:09:52.286Z,1018.05
2019-05-13T10:10:52.902Z,1017.98
2019-05-13T10:11:52.096Z,1017.98
2019-05-13T10:13:08.011Z,1018.01
2019-05-13T10:13:53.071Z,1018.01
2019-05-13T10:14:52.071Z,1017.96
2019-05-13T10:15:52.047Z,1017.95
2019-05-13T10:16:52.039Z,1017.89
2019-05-13T10:17:52.707Z,1017.99
2019-05-13T10:18:52.634Z,1017.88
2019-05-13T10:19:52.365Z,1017.85
2019-05-13T10:20:53.799Z,1017.85
2019-05-13T10:21:52.989Z,1017.88
2019-05-13T10:22:52.533Z,1017.87
2019-05-13T10:23:51.964Z,1017.85
2019-05-13T10:24:51.954Z,1017.81
2019-05-13T10:25:52.282Z,1017.86
2019-05-13T10:27:04.261Z,1017.84
2019-05-13T10:27:51.918Z,1017.81
2019-05-13T10:28:57.704Z,1017.82
2019-05-13T10:29:52.251Z,1017.84
2019-05-13T10:30:53.061Z,1017.85
2019-05-13T10:31:51.919Z,1017.87
2019-05-13T10:32:52.724Z,1017.88
2019-05-13T10:33:51.858Z,1017.91
2019-05-13T10:34:52.164Z,1017.93
2019-05-13T10:35:52.590Z,1017.88
2019-05-13T10:36:51.866Z,1017.83
2019-05-13T10:37:52.424Z,1017.82
2019-05-13T10:38:52.515Z,1017.89
2019-05-13T10:39:51.936Z,1017.87
2019-05-13T10:40:52.182Z,1017.80
2019-05-13T10:41:52.477Z,1017.81
2019-05-13T10:42:52.387Z,1017.84
2019-05-13T10:43:52.056Z,1017.84
2019-05-13T10:44:52.356Z,1017.90
2019-05-13T10:45:52.603Z,1017.87
2019-05-13T10:46:52.369Z,1017.87
2019-05-13T10:47:52.041Z,1017.90
2019-05-13T10:48:52.670Z,1017.95
2019-05-13T10:49:52.300Z,1017.98
2019-05-13T10:50:52.831Z,1017.94
2019-05-13T10:51:52.661Z,1017.98
2019-05-13T10:52:52.270Z,1018.01
2019-05-13T10:53:53.002Z,1017.97
2019-05-13T10:54:52.672Z,1017.99
2019-05-13T10:55:52.342Z,1017.91
2019-05-13T10:56:52.724Z,1017.97
2019-05-13T10:58:02.598Z,1018.00
2019-05-13T10:58:53.366Z,1017.99
2019-05-13T10:59:52.820Z,1017.94
2019-05-13T11:00:51.927Z,1017.91
2019-05-13T11:01:51.550Z,1017.94
2019-05-13T11:02:51.540Z,1017.97
2019-05-13T11:03:52.412Z,1017.97
2019-05-13T11:04:52.476Z,1017.94
2019-05-13T11:05:52.532Z,1017.98
2019-05-13T11:06:52.407Z,1017.98
2019-05-13T11:07:51.844Z,1017.93
2019-05-13T11:08:53.089Z,1017.94
2019-05-13T11:09:52.769Z,1017.95
2019-05-13T11:10:53.162Z,1017.83
2019-05-13T11:11:52.759Z,1017.90
2019-05-13T11:12:52.035Z,1017.84
2019-05-13T11:13:58.780Z,1017.86
2019-05-13T11:14:55.094Z,1017.79
2019-05-13T11:15:57.471Z,1017.76
2019-05-13T11:16:52.652Z,1017.81
2019-05-13T11:17:51.918Z,1017.75
2019-05-13T11:18:52.047Z,1017.78
2019-05-13T11:19:51.362Z,1017.73
2019-05-13T11:20:51.342Z,1017.74
2019-05-13T11:21:51.345Z,1017.78
2019-05-13T11:22:52.145Z,1017.81
2019-05-13T11:23:51.781Z,1017.76
2019-05-13T11:24:51.917Z,1017.80
2019-05-13T11:25:52.259Z,1017.82
2019-05-13T11:26:53.037Z,1017.79
2019-05-13T11:27:52.399Z,1017.82
2019-05-13T11:29:02.770Z,1017.79
2019-05-13T11:29:52.359Z,1017.82
2019-05-13T11:30:52.082Z,1017.80
2019-05-13T11:31:52.335Z,1017.82
2019-05-13T11:32:51.719Z,1017.83
2019-05-13T11:33:52.033Z,1017.85
2019-05-13T11:34:52.913Z,1017.83
2019-05-13T11:35:52.360Z,1017.87
2019-05-13T11:36:53.209Z,1017.80
2019-05-13T11:37:52.201Z,1017.87
2019-05-13T11:38:53.094Z,1017.79
2019-05-13T11:39:51.669Z,1017.81
2019-05-13T11:40:52.500Z,1017.79
2019-05-13T11:41:51.119Z,1017.87
2019-05-13T11:42:52.684Z,1017.83
2019-05-13T11:44:11.054Z,1017.83
2019-05-13T11:44:52.970Z,1017.86
2019-05-13T11:45:51.773Z,1017.87
2019-05-13T11:46:52.957Z,1017.84
2019-05-13T11:47:52.186Z,1017.86
2019-05-13T11:48:51.895Z,1017.90
2019-05-13T11:49:52.265Z,1017.85
2019-05-13T11:50:53.968Z,1017.85
2019-05-13T11:51:51.935Z,1017.81
2019-05-13T11:52:52.464Z,1017.80
2019-05-13T11:53:52.464Z,1017.81
2019-05-13T11:54:53.827Z,1017.71
2019-05-13T11:55:52.255Z,1017.74
2019-05-13T11:57:01.241Z,1017.78
2019-05-13T11:57:53.085Z,1017.76
2019-05-13T11:58:53.423Z,1017.73
2019-05-13T12:00:02.622Z,1017.79
2019-05-13T12:00:53.145Z,1017.81
2019-05-13T12:01:53.844Z,1017.83
2019-05-13T12:02:54.608Z,1017.78
2019-05-13T12:03:53.029Z,1017.69
2019-05-13T12:04:53.444Z,1017.76
2019-05-13T12:05:53.855Z,1017.74
2019-05-13T12:06:54.524Z,1017.76
2019-05-13T12:07:53.520Z,1017.78